Bekkevoort, Belgium
Current Conditions -  °F | °C
As of 4:25 AM on Thursday 23 Oct 2014 (Local Time) from EBDT Reporting Station
Overcast Overcast  
Wind Chill: 46°   Ceiling: 4700
Heat Index: 48°   Visibility: 6mi
Dew Point: 45°   Wind: 6mph
Humidity: 87%   Direction: 230°SW
Pressure: 30.21"   Gusts: NA
Location:  50.94°N, 4.97°E
Report Text: EBDT 230225Z AUTO 23005KT 9999 OVC047/// 09/07 Q1023 BLU
Loading
Personal Weather Stations






























Interactive Weather Map
Tropical Storm Tracking
New forecast layout! Learn more

10-Day Weather Forecast

Advertisements
Track Severe Weather on mobile